sensor_id;sensor_type;location;lat;lon;timestamp;temperature;humidity
11619;DHT22;5865;48.776;9.280;2023-06-22T00:04:02;19.80;99.90
11619;DHT22;5865;48.776;9.280;2023-06-22T00:06:29;19.70;99.90
11619;DHT22;5865;48.776;9.280;2023-06-22T00:08:56;19.60;99.90
11619;DHT22;5865;48.776;9.280;2023-06-22T00:22:59;19.30;99.90
11619;DHT22;5865;48.776;9.280;2023-06-22T00:25:40;19.30;99.90
11619;DHT22;5865;48.776;9.280;2023-06-22T00:28:08;19.20;99.90
11619;DHT22;5865;48.776;9.280;2023-06-22T00:30:49;19.10;99.90
11619;DHT22;5865;48.776;9.280;2023-06-22T00:36:11;19.00;99.90
11619;DHT22;5865;48.776;9.280;2023-06-22T00:38:44;18.90;99.90
11619;DHT22;5865;48.776;9.280;2023-06-22T00:41:25;19.10;99.90
11619;DHT22;5865;48.776;9.280;2023-06-22T00:46:47;19.00;99.90
11619;DHT22;5865;48.776;9.280;2023-06-22T00:49:28;18.90;99.90
11619;DHT22;5865;48.776;9.280;2023-06-22T00:52:09;18.80;99.90
11619;DHT22;5865;48.776;9.280;2023-06-22T00:58:05;18.70;99.90
11619;DHT22;5865;48.776;9.280;2023-06-22T01:00:48;18.60;99.90
11619;DHT22;5865;48.776;9.280;2023-06-22T01:03:29;18.60;99.90
11619;DHT22;5865;48.776;9.280;2023-06-22T01:05:59;18.60;99.90
11619;DHT22;5865;48.776;9.280;2023-06-22T01:08:49;18.60;99.90
11619;DHT22;5865;48.776;9.280;2023-06-22T01:11:36;18.60;99.90
11619;DHT22;5865;48.776;9.280;2023-06-22T01:17:49;18.60;99.90
11619;DHT22;5865;48.776;9.280;2023-06-22T01:20:21;18.60;99.90
11619;DHT22;5865;48.776;9.280;2023-06-22T01:23:10;18.60;99.90
11619;DHT22;5865;48.776;9.280;2023-06-22T01:25:46;18.60;99.90
11619;DHT22;5865;48.776;9.280;2023-06-22T01:29:00;18.60;99.90
11619;DHT22;5865;48.776;9.280;2023-06-22T01:31:34;18.50;99.90
11619;DHT22;5865;48.776;9.280;2023-06-22T01:34:03;18.40;99.90
11619;DHT22;5865;48.776;9.280;2023-06-22T01:36:45;18.30;99.90
11619;DHT22;5865;48.776;9.280;2023-06-22T01:39:22;18.20;99.90
11619;DHT22;5865;48.776;9.280;2023-06-22T01:41:53;18.30;99.90
11619;DHT22;5865;48.776;9.280;2023-06-22T01:44:27;18.20;99.90
11619;DHT22;5865;48.776;9.280;2023-06-22T01:52:15;18.20;99.90
11619;DHT22;5865;48.776;9.280;2023-06-22T01:54:43;18.20;99.90
11619;DHT22;5865;48.776;9.280;2023-06-22T01:57:23;18.20;99.90
11619;DHT22;5865;48.776;9.280;2023-06-22T01:59:58;18.30;99.90
11619;DHT22;5865;48.776;9.280;2023-06-22T02:02:45;18.30;99.90
11619;DHT22;5865;48.776;9.280;2023-06-22T02:05:33;18.30;99.90
11619;DHT22;5865;48.776;9.280;2023-06-22T02:08:19;18.20;99.90
11619;DHT22;5865;48.776;9.280;2023-06-22T02:11:00;18.00;99.90
11619;DHT22;5865;48.776;9.280;2023-06-22T02:13:39;18.00;99.90
11619;DHT22;5865;48.776;9.280;2023-06-22T02:16:38;18.00;99.90
11619;DHT22;5865;48.776;9.280;2023-06-22T02:19:09;17.90;99.90
11619;DHT22;5865;48.776;9.280;2023-06-22T02:24:20;18.00;99.90
11619;DHT22;5865;48.776;9.280;2023-06-22T02:26:49;17.90;99.90
11619;DHT22;5865;48.776;9.280;2023-06-22T02:29:31;17.90;99.90
11619;DHT22;5865;48.776;9.280;2023-06-22T02:32:17;17.90;99.90
11619;DHT22;5865;48.776;9.280;2023-06-22T02:37:35;17.70;99.90
11619;DHT22;5865;48.776;9.280;2023-06-22T02:40:05;17.70;99.90
11619;DHT22;5865;48.776;9.280;2023-06-22T02:42:46;17.70;99.90
11619;DHT22;5865;48.776;9.280;2023-06-22T02:45:15;17.70;99.90
11619;DHT22;5865;48.776;9.280;2023-06-22T02:50:24;17.70;99.90
11619;DHT22;5865;48.776;9.280;2023-06-22T02:52:53;17.60;99.90
11619;DHT22;5865;48.776;9.280;2023-06-22T02:55:37;17.70;99.90
11619;DHT22;5865;48.776;9.280;2023-06-22T03:00:49;17.50;99.90
11619;DHT22;5865;48.776;9.280;2023-06-22T03:14:58;17.50;99.90
11619;DHT22;5865;48.776;9.280;2023-06-22T03:17:40;17.40;99.90
11619;DHT22;5865;48.776;9.280;2023-06-22T03:20:22;17.40;99.90
11619;DHT22;5865;48.776;9.280;2023-06-22T03:22:59;17.30;99.90
11619;DHT22;5865;48.776;9.280;2023-06-22T03:32:18;17.20;99.90
11619;DHT22;5865;48.776;9.280;2023-06-22T03:37:40;17.30;99.90
11619;DHT22;5865;48.776;9.280;2023-06-22T03:40:21;17.30;99.90
11619;DHT22;5865;48.776;9.280;2023-06-22T03:43:02;17.30;99.90
11619;DHT22;5865;48.776;9.280;2023-06-22T04:10:45;17.90;99.90
11619;DHT22;5865;48.776;9.280;2023-06-22T04:16:31;18.10;99.90
11619;DHT22;5865;48.776;9.280;2023-06-22T04:19:12;18.20;99.90
11619;DHT22;5865;48.776;9.280;2023-06-22T05:46:44;22.10;99.90
11619;DHT22;5865;48.776;9.280;2023-06-22T06:08:32;23.20;99.90
11619;DHT22;5865;48.776;9.280;2023-06-22T06:53:47;24.00;99.90
11619;DHT22;5865;48.776;9.280;2023-06-22T06:56:16;24.40;99.90
11619;DHT22;5865;48.776;9.280;2023-06-22T07:01:14;25.00;99.90
11619;DHT22;5865;48.776;9.280;2023-06-22T10:06:49;33.10;91.80
11619;DHT22;5865;48.776;9.280;2023-06-22T10:10:31;34.40;89.50
11619;DHT22;5865;48.776;9.280;2023-06-22T10:28:18;31.40;92.50
11619;DHT22;5865;48.776;9.280;2023-06-22T10:30:46;32.40;91.60
11619;DHT22;5865;48.776;9.280;2023-06-22T10:33:13;32.50;92.00
11619;DHT22;5865;48.776;9.280;2023-06-22T10:35:40;32.60;91.00
11619;DHT22;5865;48.776;9.280;2023-06-22T10:38:07;32.80;90.80
11619;DHT22;5865;48.776;9.280;2023-06-22T10:40:34;33.00;90.50
11619;DHT22;5865;48.776;9.280;2023-06-22T10:43:01;33.30;90.30
11619;DHT22;5865;48.776;9.280;2023-06-22T10:45:28;33.10;88.10
11619;DHT22;5865;48.776;9.280;2023-06-22T10:47:56;32.80;89.90
11619;DHT22;5865;48.776;9.280;2023-06-22T10:50:25;32.10;90.40
11619;DHT22;5865;48.776;9.280;2023-06-22T10:52:52;31.70;91.10
11619;DHT22;5865;48.776;9.280;2023-06-22T10:55:19;32.90;90.90
11619;DHT22;5865;48.776;9.280;2023-06-22T10:57:45;33.10;91.10
11619;DHT22;5865;48.776;9.280;2023-06-22T11:00:14;33.20;90.40
11619;DHT22;5865;48.776;9.280;2023-06-22T11:02:41;33.80;89.70
11619;DHT22;5865;48.776;9.280;2023-06-22T11:05:09;33.20;89.30
11619;DHT22;5865;48.776;9.280;2023-06-22T11:07:37;33.20;89.90
11619;DHT22;5865;48.776;9.280;2023-06-22T11:10:05;33.80;88.30
11619;DHT22;5865;48.776;9.280;2023-06-22T11:12:32;34.50;86.30
11619;DHT22;5865;48.776;9.280;2023-06-22T11:14:59;34.50;86.30
11619;DHT22;5865;48.776;9.280;2023-06-22T11:17:26;34.50;86.60
11619;DHT22;5865;48.776;9.280;2023-06-22T11:19:53;34.30;87.40
11619;DHT22;5865;48.776;9.280;2023-06-22T11:22:21;34.30;87.00
11619;DHT22;5865;48.776;9.280;2023-06-22T11:24:48;34.10;84.60
11619;DHT22;5865;48.776;9.280;2023-06-22T11:27:15;34.10;85.30
11619;DHT22;5865;48.776;9.280;2023-06-22T11:29:42;34.10;86.70
11619;DHT22;5865;48.776;9.280;2023-06-22T11:32:09;33.80;87.30
11619;DHT22;5865;48.776;9.280;2023-06-22T11:34:36;32.70;88.90
11619;DHT22;5865;48.776;9.280;2023-06-22T11:37:04;32.80;88.40
11619;DHT22;5865;48.776;9.280;2023-06-22T11:39:32;33.10;87.70
11619;DHT22;5865;48.776;9.280;2023-06-22T11:41:59;32.50;89.30
11619;DHT22;5865;48.776;9.280;2023-06-22T11:44:26;33.00;88.30
11619;DHT22;5865;48.776;9.280;2023-06-22T11:46:53;33.60;86.30
11619;DHT22;5865;48.776;9.280;2023-06-22T11:49:20;33.70;86.70
11619;DHT22;5865;48.776;9.280;2023-06-22T11:51:47;34.00;85.20
11619;DHT22;5865;48.776;9.280;2023-06-22T11:54:14;33.90;86.80
11619;DHT22;5865;48.776;9.280;2023-06-22T11:56:42;33.90;85.60
11619;DHT22;5865;48.776;9.280;2023-06-22T11:59:09;34.60;84.00
11619;DHT22;5865;48.776;9.280;2023-06-22T12:01:36;32.90;85.30
11619;DHT22;5865;48.776;9.280;2023-06-22T12:04:03;32.30;89.20
11619;DHT22;5865;48.776;9.280;2023-06-22T12:06:31;32.70;87.40
11619;DHT22;5865;48.776;9.280;2023-06-22T12:08:58;32.70;88.80
11619;DHT22;5865;48.776;9.280;2023-06-22T12:11:25;33.60;87.00
11619;DHT22;5865;48.776;9.280;2023-06-22T12:13:54;33.80;84.00
11619;DHT22;5865;48.776;9.280;2023-06-22T12:16:21;33.60;83.20
11619;DHT22;5865;48.776;9.280;2023-06-22T12:18:48;33.20;85.00
11619;DHT22;5865;48.776;9.280;2023-06-22T12:21:15;33.40;84.80
11619;DHT22;5865;48.776;9.280;2023-06-22T12:23:42;33.80;83.50
11619;DHT22;5865;48.776;9.280;2023-06-22T12:26:09;32.50;83.60
11619;DHT22;5865;48.776;9.280;2023-06-22T12:28:36;32.00;85.30
11619;DHT22;5865;48.776;9.280;2023-06-22T12:31:06;32.40;87.60
11619;DHT22;5865;48.776;9.280;2023-06-22T12:33:34;32.50;88.10
11619;DHT22;5865;48.776;9.280;2023-06-22T12:36:01;33.50;82.30
11619;DHT22;5865;48.776;9.280;2023-06-22T12:38:29;33.30;82.20
11619;DHT22;5865;48.776;9.280;2023-06-22T12:40:56;33.30;82.50
11619;DHT22;5865;48.776;9.280;2023-06-22T12:45:50;31.50;87.50
11619;DHT22;5865;48.776;9.280;2023-06-22T12:50:46;32.10;86.10
11619;DHT22;5865;48.776;9.280;2023-06-22T12:53:13;32.10;86.10
11619;DHT22;5865;48.776;9.280;2023-06-22T12:55:40;31.30;88.00
11619;DHT22;5865;48.776;9.280;2023-06-22T12:58:07;31.40;89.20
11619;DHT22;5865;48.776;9.280;2023-06-22T13:00:34;31.60;89.40
11619;DHT22;5865;48.776;9.280;2023-06-22T13:03:01;31.90;89.30
11619;DHT22;5865;48.776;9.280;2023-06-22T13:05:30;32.20;89.60
11619;DHT22;5865;48.776;9.280;2023-06-22T13:07:57;32.20;90.30
11619;DHT22;5865;48.776;9.280;2023-06-22T13:10:24;32.40;88.70
11619;DHT22;5865;48.776;9.280;2023-06-22T13:12:51;32.50;86.30
11619;DHT22;5865;48.776;9.280;2023-06-22T13:15:26;32.20;87.30
11619;DHT22;5865;48.776;9.280;2023-06-22T13:17:53;32.30;88.60
11619;DHT22;5865;48.776;9.280;2023-06-22T13:20:20;32.60;86.20
11619;DHT22;5865;48.776;9.280;2023-06-22T13:22:48;32.70;86.70
11619;DHT22;5865;48.776;9.280;2023-06-22T13:25:15;32.90;83.80
11619;DHT22;5865;48.776;9.280;2023-06-22T13:27:45;32.70;84.10
11619;DHT22;5865;48.776;9.280;2023-06-22T13:30:12;33.00;85.00
11619;DHT22;5865;48.776;9.280;2023-06-22T13:32:39;33.60;81.70
11619;DHT22;5865;48.776;9.280;2023-06-22T13:35:08;33.70;80.90
11619;DHT22;5865;48.776;9.280;2023-06-22T13:37:37;33.80;82.00
11619;DHT22;5865;48.776;9.280;2023-06-22T13:40:07;34.20;83.10
11619;DHT22;5865;48.776;9.280;2023-06-22T13:45:01;34.00;82.20
11619;DHT22;5865;48.776;9.280;2023-06-22T13:47:29;34.70;80.10
11619;DHT22;5865;48.776;9.280;2023-06-22T13:57:21;35.20;76.40
11619;DHT22;5865;48.776;9.280;2023-06-22T13:59:48;35.00;78.00
11619;DHT22;5865;48.776;9.280;2023-06-22T14:02:15;34.40;80.10
11619;DHT22;5865;48.776;9.280;2023-06-22T14:07:12;34.70;77.00
11619;DHT22;5865;48.776;9.280;2023-06-22T14:09:39;35.30;78.30
11619;DHT22;5865;48.776;9.280;2023-06-22T14:12:07;36.10;77.20
11619;DHT22;5865;48.776;9.280;2023-06-22T14:14:36;35.00;74.90
11619;DHT22;5865;48.776;9.280;2023-06-22T14:17:03;34.70;73.00
11619;DHT22;5865;48.776;9.280;2023-06-22T14:19:31;35.00;74.10
11619;DHT22;5865;48.776;9.280;2023-06-22T14:24:25;36.70;70.70
11619;DHT22;5865;48.776;9.280;2023-06-22T14:31:48;36.20;64.90
11619;DHT22;5865;48.776;9.280;2023-06-22T14:34:16;35.80;66.10
11619;DHT22;5865;48.776;9.280;2023-06-22T14:36:43;35.70;69.10
11619;DHT22;5865;48.776;9.280;2023-06-22T14:39:10;35.80;66.70
11619;DHT22;5865;48.776;9.280;2023-06-22T14:41:37;35.20;66.20
11619;DHT22;5865;48.776;9.280;2023-06-22T14:44:04;36.00;64.40
11619;DHT22;5865;48.776;9.280;2023-06-22T14:46:31;38.60;59.10
11619;DHT22;5865;48.776;9.280;2023-06-22T14:54:03;38.20;48.40
11619;DHT22;5865;48.776;9.280;2023-06-22T14:56:54;37.20;49.40
11619;DHT22;5865;48.776;9.280;2023-06-22T14:59:28;37.60;49.50
11619;DHT22;5865;48.776;9.280;2023-06-22T15:01:58;37.60;49.90
11619;DHT22;5865;48.776;9.280;2023-06-22T15:12:00;36.20;45.10
11619;DHT22;5865;48.776;9.280;2023-06-22T15:19:28;34.20;47.50
11619;DHT22;5865;48.776;9.280;2023-06-22T15:21:58;34.70;47.80
11619;DHT22;5865;48.776;9.280;2023-06-22T15:24:25;36.40;46.40
11619;DHT22;5865;48.776;9.280;2023-06-22T15:26:51;37.20;44.30
11619;DHT22;5865;48.776;9.280;2023-06-22T15:29:18;37.10;44.30
11619;DHT22;5865;48.776;9.280;2023-06-22T15:34:13;37.30;43.90
11619;DHT22;5865;48.776;9.280;2023-06-22T15:36:41;37.90;43.30
11619;DHT22;5865;48.776;9.280;2023-06-22T15:41:36;37.50;43.00
11619;DHT22;5865;48.776;9.280;2023-06-22T15:46:38;34.10;46.80
11619;DHT22;5865;48.776;9.280;2023-06-22T15:49:06;34.10;47.30
11619;DHT22;5865;48.776;9.280;2023-06-22T15:56:33;34.00;47.50
11619;DHT22;5865;48.776;9.280;2023-06-22T15:59:00;34.10;47.30
11619;DHT22;5865;48.776;9.280;2023-06-22T16:01:27;34.10;47.10
11619;DHT22;5865;48.776;9.280;2023-06-22T16:03:54;34.50;47.90
11619;DHT22;5865;48.776;9.280;2023-06-22T16:06:21;34.00;47.90
11619;DHT22;5865;48.776;9.280;2023-06-22T16:08:48;33.50;47.70
11619;DHT22;5865;48.776;9.280;2023-06-22T16:18:43;31.90;50.10
11619;DHT22;5865;48.776;9.280;2023-06-22T16:21:11;31.70;52.50
11619;DHT22;5865;48.776;9.280;2023-06-22T16:26:05;31.30;53.10
11619;DHT22;5865;48.776;9.280;2023-06-22T16:28:33;31.20;53.00
11619;DHT22;5865;48.776;9.280;2023-06-22T16:31:00;31.00;53.50
11619;DHT22;5865;48.776;9.280;2023-06-22T16:35:55;30.90;57.40
11619;DHT22;5865;48.776;9.280;2023-06-22T16:38:22;30.80;55.30
11619;DHT22;5865;48.776;9.280;2023-06-22T16:40:49;31.00;55.30
11619;DHT22;5865;48.776;9.280;2023-06-22T16:43:17;30.80;54.40
11619;DHT22;5865;48.776;9.280;2023-06-22T16:55:36;30.20;56.00
11619;DHT22;5865;48.776;9.280;2023-06-22T17:04:27;30.60;55.60
11619;DHT22;5865;48.776;9.280;2023-06-22T17:07:01;31.20;54.60
11619;DHT22;5865;48.776;9.280;2023-06-22T17:09:46;31.20;54.50
11619;DHT22;5865;48.776;9.280;2023-06-22T17:12:14;31.50;53.90
11619;DHT22;5865;48.776;9.280;2023-06-22T17:14:42;31.50;53.90
11619;DHT22;5865;48.776;9.280;2023-06-22T17:17:10;32.10;53.40
11619;DHT22;5865;48.776;9.280;2023-06-22T17:19:38;31.10;54.30
11619;DHT22;5865;48.776;9.280;2023-06-22T17:24:33;30.30;56.10
11619;DHT22;5865;48.776;9.280;2023-06-22T17:27:00;30.40;56.00
11619;DHT22;5865;48.776;9.280;2023-06-22T17:29:29;30.40;56.20
11619;DHT22;5865;48.776;9.280;2023-06-22T17:34:27;30.10;56.70
11619;DHT22;5865;48.776;9.280;2023-06-22T17:38:31;29.70;55.90
11619;DHT22;5865;48.776;9.280;2023-06-22T17:41:00;29.20;57.20
11619;DHT22;5865;48.776;9.280;2023-06-22T17:45:58;28.70;57.60
11619;DHT22;5865;48.776;9.280;2023-06-22T17:50:52;28.40;57.70
11619;DHT22;5865;48.776;9.280;2023-06-22T17:53:25;28.10;58.60
11619;DHT22;5865;48.776;9.280;2023-06-22T17:55:54;27.90;59.00
11619;DHT22;5865;48.776;9.280;2023-06-22T17:58:21;27.70;59.30
11619;DHT22;5865;48.776;9.280;2023-06-22T18:00:48;27.70;60.30
11619;DHT22;5865;48.776;9.280;2023-06-22T18:03:15;27.40;60.50
11619;DHT22;5865;48.776;9.280;2023-06-22T18:05:46;27.30;61.50
11619;DHT22;5865;48.776;9.280;2023-06-22T18:08:13;27.20;62.40
11619;DHT22;5865;48.776;9.280;2023-06-22T18:10:42;27.10;62.70
11619;DHT22;5865;48.776;9.280;2023-06-22T18:13:12;26.90;64.00
11619;DHT22;5865;48.776;9.280;2023-06-22T18:18:08;26.70;63.10
11619;DHT22;5865;48.776;9.280;2023-06-22T18:20:37;26.50;63.70
11619;DHT22;5865;48.776;9.280;2023-06-22T18:23:09;26.50;64.30
11619;DHT22;5865;48.776;9.280;2023-06-22T18:25:38;26.40;64.90
11619;DHT22;5865;48.776;9.280;2023-06-22T18:28:06;26.30;65.50
11619;DHT22;5865;48.776;9.280;2023-06-22T18:33:08;26.10;66.60
11619;DHT22;5865;48.776;9.280;2023-06-22T18:43:20;25.80;68.10
11619;DHT22;5865;48.776;9.280;2023-06-22T18:45:48;25.80;69.20
11619;DHT22;5865;48.776;9.280;2023-06-22T18:50:51;25.50;70.20
11619;DHT22;5865;48.776;9.280;2023-06-22T18:53:25;25.40;71.00
11619;DHT22;5865;48.776;9.280;2023-06-22T18:56:10;25.30;72.40
11619;DHT22;5865;48.776;9.280;2023-06-22T19:01:15;25.10;73.90
11619;DHT22;5865;48.776;9.280;2023-06-22T19:07:01;25.10;75.00
11619;DHT22;5865;48.776;9.280;2023-06-22T19:12:19;24.80;76.80
11619;DHT22;5865;48.776;9.280;2023-06-22T19:15:09;24.70;78.10
11619;DHT22;5865;48.776;9.280;2023-06-22T19:17:38;24.60;78.70
11619;DHT22;5865;48.776;9.280;2023-06-22T19:20:10;24.60;78.30
11619;DHT22;5865;48.776;9.280;2023-06-22T19:22:57;24.70;79.60
11619;DHT22;5865;48.776;9.280;2023-06-22T19:25:26;24.50;84.20
11619;DHT22;5865;48.776;9.280;2023-06-22T19:30:40;24.20;87.90
11619;DHT22;5865;48.776;9.280;2023-06-22T19:36:03;23.90;90.40
11619;DHT22;5865;48.776;9.280;2023-06-22T19:38:55;23.90;90.70
11619;DHT22;5865;48.776;9.280;2023-06-22T19:41:38;23.70;92.00
11619;DHT22;5865;48.776;9.280;2023-06-22T19:46:35;23.60;93.10
11619;DHT22;5865;48.776;9.280;2023-06-22T19:51:31;23.40;96.40
11619;DHT22;5865;48.776;9.280;2023-06-22T19:54:06;23.30;96.70
11619;DHT22;5865;48.776;9.280;2023-06-22T19:56:33;23.20;98.90
11619;DHT22;5865;48.776;9.280;2023-06-22T19:59:09;23.10;99.90
11619;DHT22;5865;48.776;9.280;2023-06-22T20:01:49;22.90;99.90
11619;DHT22;5865;48.776;9.280;2023-06-22T20:07:00;22.80;99.90
11619;DHT22;5865;48.776;9.280;2023-06-22T20:09:32;22.80;99.90
11619;DHT22;5865;48.776;9.280;2023-06-22T20:12:01;22.70;99.90
11619;DHT22;5865;48.776;9.280;2023-06-22T20:14:42;22.70;99.90
11619;DHT22;5865;48.776;9.280;2023-06-22T20:17:14;23.00;99.90
11619;DHT22;5865;48.776;9.280;2023-06-22T20:19:41;22.60;99.90
11619;DHT22;5865;48.776;9.280;2023-06-22T20:24:38;22.60;99.90
11619;DHT22;5865;48.776;9.280;2023-06-22T20:27:10;22.50;99.90
11619;DHT22;5865;48.776;9.280;2023-06-22T20:29:38;22.50;99.90
11619;DHT22;5865;48.776;9.280;2023-06-22T20:32:06;22.50;99.90
11619;DHT22;5865;48.776;9.280;2023-06-22T20:34:38;22.60;99.90
11619;DHT22;5865;48.776;9.280;2023-06-22T20:37:07;22.50;99.90
11619;DHT22;5865;48.776;9.280;2023-06-22T20:42:04;22.60;99.90
11619;DHT22;5865;48.776;9.280;2023-06-22T20:49:29;22.50;99.90
11619;DHT22;5865;48.776;9.280;2023-06-22T20:51:56;22.60;99.90
11619;DHT22;5865;48.776;9.280;2023-06-22T20:54:23;22.70;99.90
11619;DHT22;5865;48.776;9.280;2023-06-22T20:56:49;22.70;99.90
11619;DHT22;5865;48.776;9.280;2023-06-22T20:59:18;22.70;99.90
11619;DHT22;5865;48.776;9.280;2023-06-22T21:06:40;22.60;99.90
11619;DHT22;5865;48.776;9.280;2023-06-22T21:09:07;22.60;99.90
11619;DHT22;5865;48.776;9.280;2023-06-22T21:11:34;22.60;99.90
11619;DHT22;5865;48.776;9.280;2023-06-22T21:14:01;22.60;99.90
11619;DHT22;5865;48.776;9.280;2023-06-22T21:16:29;22.60;99.90
11619;DHT22;5865;48.776;9.280;2023-06-22T21:21:23;22.50;99.90
11619;DHT22;5865;48.776;9.280;2023-06-22T21:23:50;22.50;99.90
11619;DHT22;5865;48.776;9.280;2023-06-22T21:28:44;22.50;99.90
11619;DHT22;5865;48.776;9.280;2023-06-22T21:31:11;22.30;99.90
11619;DHT22;5865;48.776;9.280;2023-06-22T21:33:42;22.20;99.90
11619;DHT22;5865;48.776;9.280;2023-06-22T21:36:09;22.20;99.90
11619;DHT22;5865;48.776;9.280;2023-06-22T21:38:36;22.20;99.90
11619;DHT22;5865;48.776;9.280;2023-06-22T21:43:30;21.90;99.90
11619;DHT22;5865;48.776;9.280;2023-06-22T21:45:58;21.90;99.90
11619;DHT22;5865;48.776;9.280;2023-06-22T21:50:53;21.70;99.90
11619;DHT22;5865;48.776;9.280;2023-06-22T21:55:48;21.60;99.90
11619;DHT22;5865;48.776;9.280;2023-06-22T21:58:15;21.50;99.90
11619;DHT22;5865;48.776;9.280;2023-06-22T22:03:10;21.40;99.90
11619;DHT22;5865;48.776;9.280;2023-06-22T22:05:37;21.50;99.90
11619;DHT22;5865;48.776;9.280;2023-06-22T22:10:34;21.40;99.90
11619;DHT22;5865;48.776;9.280;2023-06-22T22:15:29;21.20;99.90
11619;DHT22;5865;48.776;9.280;2023-06-22T22:22:57;21.10;99.90
11619;DHT22;5865;48.776;9.280;2023-06-22T22:30:20;21.00;99.90
11619;DHT22;5865;48.776;9.280;2023-06-22T22:35:14;20.90;99.90
11619;DHT22;5865;48.776;9.280;2023-06-22T22:40:09;20.90;99.90
11619;DHT22;5865;48.776;9.280;2023-06-22T22:42:38;20.90;99.90
11619;DHT22;5865;48.776;9.280;2023-06-22T22:45:06;20.90;99.90
11619;DHT22;5865;48.776;9.280;2023-06-22T22:47:34;20.80;99.90
11619;DHT22;5865;48.776;9.280;2023-06-22T22:52:29;20.80;99.90
11619;DHT22;5865;48.776;9.280;2023-06-22T22:54:56;20.70;99.90
11619;DHT22;5865;48.776;9.280;2023-06-22T22:57:23;20.70;99.90
11619;DHT22;5865;48.776;9.280;2023-06-22T22:59:51;20.80;99.90
11619;DHT22;5865;48.776;9.280;2023-06-22T23:02:18;20.70;99.90
11619;DHT22;5865;48.776;9.280;2023-06-22T23:04:53;20.70;99.90
11619;DHT22;5865;48.776;9.280;2023-06-22T23:07:20;20.60;99.90
11619;DHT22;5865;48.776;9.280;2023-06-22T23:09:47;20.70;99.90
11619;DHT22;5865;48.776;9.280;2023-06-22T23:14:41;20.70;99.90
11619;DHT22;5865;48.776;9.280;2023-06-22T23:17:10;20.70;99.90
11619;DHT22;5865;48.776;9.280;2023-06-22T23:19:37;20.70;99.90
11619;DHT22;5865;48.776;9.280;2023-06-22T23:22:04;20.70;99.90
11619;DHT22;5865;48.776;9.280;2023-06-22T23:24:31;20.70;99.90
11619;DHT22;5865;48.776;9.280;2023-06-22T23:26:58;20.60;99.90
11619;DHT22;5865;48.776;9.280;2023-06-22T23:31:53;20.70;99.90
11619;DHT22;5865;48.776;9.280;2023-06-22T23:34:21;20.60;99.90
11619;DHT22;5865;48.776;9.280;2023-06-22T23:36:48;20.50;99.90
11619;DHT22;5865;48.776;9.280;2023-06-22T23:39:15;20.60;99.90
11619;DHT22;5865;48.776;9.280;2023-06-22T23:41:43;20.70;99.90
11619;DHT22;5865;48.776;9.280;2023-06-22T23:44:10;20.70;99.90
11619;DHT22;5865;48.776;9.280;2023-06-22T23:51:34;20.60;99.90
11619;DHT22;5865;48.776;9.280;2023-06-22T23:54:01;20.60;99.90
11619;DHT22;5865;48.776;9.280;2023-06-22T23:56:28;20.60;99.90
11619;DHT22;5865;48.776;9.280;2023-06-22T23:58:55;20.50;99.90
